createdAt,value
2022-11-10T00:00:33.080Z,6.30
2022-11-10T00:03:08.183Z,6.30
2022-11-10T00:05:39.221Z,6.40
2022-11-10T00:08:10.330Z,6.40
2022-11-10T00:10:57.217Z,6.40
2022-11-10T00:13:27.429Z,6.40
2022-11-10T00:16:13.608Z,6.30
2022-11-10T00:18:43.828Z,6.30
2022-11-10T00:21:14.606Z,6.30
2022-11-10T00:23:43.393Z,6.20
2022-11-10T00:26:16.880Z,6.20
2022-11-10T00:28:53.885Z,6.20
2022-11-10T00:31:22.781Z,6.20
2022-11-10T00:33:52.902Z,6.20
2022-11-10T00:36:21.555Z,6.30
2022-11-10T00:38:57.009Z,6.20
2022-11-10T00:41:28.352Z,6.20
2022-11-10T00:43:57.191Z,6.20
2022-11-10T00:46:26.080Z,6.30
2022-11-10T00:48:56.290Z,6.30
2022-11-10T00:51:41.004Z,6.40
2022-11-10T00:54:09.796Z,6.40
2022-11-10T00:56:38.731Z,6.40
2022-11-10T00:59:07.636Z,6.50
2022-11-10T01:01:36.467Z,6.50
2022-11-10T01:04:07.473Z,6.50
2022-11-10T01:06:36.244Z,6.50
2022-11-10T01:09:05.790Z,6.50
2022-11-10T01:11:34.506Z,6.60
2022-11-10T01:14:03.267Z,6.60
2022-11-10T01:16:33.714Z,6.60
2022-11-10T01:19:04.730Z,6.60
2022-11-10T01:21:35.141Z,6.70
2022-11-10T01:24:04.019Z,6.70
2022-11-10T01:26:32.773Z,6.70
2022-11-10T01:29:01.507Z,6.70
2022-11-10T01:31:33.186Z,6.80
2022-11-10T01:34:01.947Z,6.80
2022-11-10T01:36:30.651Z,6.80
2022-11-10T01:39:02.380Z,6.80
2022-11-10T01:41:31.113Z,6.80
2022-11-10T01:44:17.609Z,6.90
2022-11-10T01:46:46.273Z,6.90
2022-11-10T01:49:36.844Z,7.00
2022-11-10T01:52:10.669Z,7.00
2022-11-10T01:54:43.695Z,7.10
2022-11-10T01:57:14.295Z,7.00
2022-11-10T01:59:48.928Z,7.00
2022-11-10T02:02:24.218Z,7.00
2022-11-10T02:04:53.845Z,7.10
2022-11-10T02:07:24.066Z,7.00
2022-11-10T02:09:55.062Z,7.00
2022-11-10T02:12:37.324Z,7.10
2022-11-10T02:15:07.234Z,7.10
2022-11-10T02:17:36.070Z,7.10
2022-11-10T02:20:07.066Z,7.10
2022-11-10T02:22:37.830Z,7.20
2022-11-10T02:25:07.776Z,7.20
2022-11-10T02:27:36.581Z,7.20
2022-11-10T02:30:06.660Z,7.20
2022-11-10T02:32:35.531Z,7.20
2022-11-10T02:35:04.181Z,7.30
2022-11-10T02:37:33.038Z,7.30
2022-11-10T02:40:03.952Z,7.30
2022-11-10T02:42:32.728Z,7.20
2022-11-10T02:45:01.493Z,7.30
2022-11-10T02:47:30.255Z,7.20
2022-11-10T02:49:58.894Z,7.20
2022-11-10T02:52:27.616Z,7.20
2022-11-10T02:54:56.426Z,7.20
2022-11-10T02:57:26.711Z,7.30
2022-11-10T02:59:55.444Z,7.30
2022-11-10T03:02:34.754Z,7.20
2022-11-10T03:05:05.992Z,7.20
2022-11-10T03:07:34.749Z,7.20
2022-11-10T03:10:03.781Z,7.20
2022-11-10T03:12:34.364Z,7.20
2022-11-10T03:15:03.129Z,7.20
2022-11-10T03:17:31.830Z,7.20
2022-11-10T03:20:00.592Z,7.20
2022-11-10T03:22:29.281Z,7.20
2022-11-10T03:24:58.002Z,7.20
2022-11-10T03:27:26.884Z,7.20
2022-11-10T03:29:57.313Z,7.30
2022-11-10T03:32:26.412Z,7.30
2022-11-10T03:34:55.937Z,7.30
2022-11-10T03:37:24.733Z,7.30
2022-11-10T03:39:56.542Z,7.40
2022-11-10T03:42:25.224Z,7.40
2022-11-10T03:44:54.044Z,7.40
2022-11-10T03:47:24.702Z,7.40
2022-11-10T03:49:53.517Z,7.40
2022-11-10T03:52:25.922Z,7.40
2022-11-10T03:54:58.058Z,7.40
2022-11-10T03:57:29.314Z,7.40
2022-11-10T03:59:58.041Z,7.50
2022-11-10T04:02:31.923Z,7.50
2022-11-10T04:05:17.874Z,7.50
2022-11-10T04:08:08.679Z,7.50
2022-11-10T04:10:37.894Z,7.50
2022-11-10T04:13:24.234Z,7.50
2022-11-10T04:15:54.061Z,7.50
2022-11-10T04:18:26.112Z,7.50
2022-11-10T04:20:56.523Z,7.60
2022-11-10T04:23:30.932Z,7.60
2022-11-10T04:26:23.225Z,7.60
2022-11-10T04:28:54.617Z,7.60
2022-11-10T04:31:24.709Z,7.60
2022-11-10T04:33:56.200Z,7.70
2022-11-10T04:36:25.975Z,7.70
2022-11-10T04:42:42.846Z,7.80
2022-11-10T04:45:12.224Z,7.80
2022-11-10T04:47:41.063Z,7.90
2022-11-10T04:50:11.985Z,7.90
2022-11-10T04:53:38.273Z,8.00
2022-11-10T04:56:41.764Z,8.00
2022-11-10T04:59:24.967Z,8.00
2022-11-10T05:02:25.648Z,8.00
2022-11-10T05:05:03.852Z,8.00
2022-11-10T05:07:49.092Z,8.10
2022-11-10T05:10:18.261Z,8.10
2022-11-10T05:13:15.981Z,8.20
2022-11-10T05:19:56.818Z,8.20
2022-11-10T05:22:35.619Z,8.30
2022-11-10T05:28:38.737Z,8.60
2022-11-10T05:31:22.077Z,8.50
2022-11-10T05:34:27.949Z,8.60
2022-11-10T05:37:06.493Z,8.60
2022-11-10T05:39:44.426Z,8.70
2022-11-10T05:42:14.642Z,8.80
2022-11-10T05:44:43.481Z,8.80
2022-11-10T05:47:12.162Z,8.80
2022-11-10T05:49:40.940Z,8.90
2022-11-10T05:52:49.008Z,9.00
2022-11-10T05:55:59.364Z,9.00
2022-11-10T05:58:46.810Z,9.10
2022-11-10T06:04:49.434Z,9.00
2022-11-10T06:08:06.563Z,9.20
2022-11-10T06:11:33.380Z,9.10
2022-11-10T06:14:30.968Z,9.30
2022-11-10T06:17:01.066Z,9.30
2022-11-10T06:19:29.755Z,9.30
2022-11-10T06:22:03.634Z,9.30
2022-11-10T06:24:35.634Z,9.30
2022-11-10T06:27:04.599Z,9.30
2022-11-10T06:29:35.355Z,9.30
2022-11-10T06:32:04.494Z,9.30
2022-11-10T06:34:33.321Z,9.30
2022-11-10T06:37:08.264Z,9.30
2022-11-10T06:39:37.385Z,9.30
2022-11-10T06:42:06.790Z,9.30
2022-11-10T06:44:37.748Z,9.40
2022-11-10T06:47:20.060Z,9.40
2022-11-10T06:49:53.829Z,9.40
2022-11-10T06:52:26.294Z,9.40
2022-11-10T06:54:55.632Z,9.40
2022-11-10T06:57:31.880Z,9.40
2022-11-10T07:00:02.250Z,9.60
2022-11-10T07:02:33.338Z,9.50
2022-11-10T07:05:02.149Z,9.50
2022-11-10T07:07:31.008Z,9.50
2022-11-10T07:10:05.660Z,9.60
2022-11-10T07:12:35.681Z,9.60
2022-11-10T07:15:11.318Z,9.70
2022-11-10T07:17:44.473Z,9.70
2022-11-10T07:20:17.457Z,9.70
2022-11-10T07:22:46.292Z,9.80
2022-11-10T07:25:15.280Z,9.90
2022-11-10T07:27:46.726Z,9.90
2022-11-10T07:30:18.144Z,9.90
2022-11-10T07:32:49.456Z,10.00
2022-11-10T07:35:20.608Z,10.00
2022-11-10T07:37:49.803Z,10.00
2022-11-10T07:40:21.543Z,10.00
2022-11-10T07:43:04.444Z,10.00
2022-11-10T07:45:42.750Z,10.10
2022-11-10T07:48:15.403Z,10.10
2022-11-10T07:50:44.736Z,10.20
2022-11-10T07:53:21.927Z,10.20
2022-11-10T07:56:22.275Z,10.20
2022-11-10T07:59:17.784Z,10.10
2022-11-10T08:02:24.459Z,10.30
2022-11-10T08:05:17.044Z,10.50
2022-11-10T08:07:46.074Z,10.40
2022-11-10T08:10:14.793Z,10.40
2022-11-10T08:12:43.400Z,10.50
2022-11-10T08:15:12.567Z,10.50
2022-11-10T08:17:42.615Z,10.50
2022-11-10T08:20:12.239Z,10.60
2022-11-10T08:22:40.977Z,10.60
2022-11-10T08:25:10.610Z,10.60
2022-11-10T08:27:39.861Z,10.60
2022-11-10T08:30:11.052Z,10.70
2022-11-10T08:32:43.146Z,10.70
2022-11-10T08:35:14.315Z,10.70
2022-11-10T08:37:43.201Z,10.70
2022-11-10T08:40:12.808Z,10.80
2022-11-10T08:42:41.801Z,10.80
2022-11-10T08:45:11.193Z,10.80
2022-11-10T08:47:39.818Z,10.90
2022-11-10T08:50:11.389Z,11.00
2022-11-10T08:52:40.293Z,11.00
2022-11-10T08:55:09.675Z,11.10
2022-11-10T08:57:38.624Z,11.10
2022-11-10T09:00:11.077Z,11.10
2022-11-10T09:02:39.742Z,11.10
2022-11-10T09:05:12.130Z,11.10
2022-11-10T09:07:48.014Z,11.20
2022-11-10T09:10:20.588Z,11.30
2022-11-10T09:12:49.480Z,11.30
2022-11-10T09:15:22.205Z,11.30
2022-11-10T09:17:51.044Z,11.30
2022-11-10T09:20:23.420Z,11.30
2022-11-10T09:22:55.515Z,11.30
2022-11-10T09:25:27.490Z,11.30
2022-11-10T09:27:57.897Z,11.20
2022-11-10T09:30:28.963Z,11.30
2022-11-10T09:32:58.900Z,11.20
2022-11-10T09:35:29.931Z,11.20
2022-11-10T09:37:59.471Z,11.30
2022-11-10T09:40:37.926Z,11.40
2022-11-10T09:43:15.274Z,11.40
2022-11-10T09:45:48.463Z,11.40
2022-11-10T09:48:24.002Z,11.40
2022-11-10T09:50:59.716Z,11.40
2022-11-10T09:53:34.983Z,11.50
2022-11-10T09:56:06.989Z,11.50
2022-11-10T09:58:40.720Z,11.50
2022-11-10T10:01:26.854Z,11.60
2022-11-10T10:04:13.966Z,11.70
2022-11-10T10:07:10.715Z,11.70
2022-11-10T10:09:47.895Z,11.80
2022-11-10T10:12:38.604Z,11.90
2022-11-10T10:15:33.263Z,11.90
2022-11-10T10:18:23.721Z,11.90
2022-11-10T10:21:08.766Z,11.90
2022-11-10T10:26:34.993Z,11.80
2022-11-10T10:29:09.855Z,11.80
2022-11-10T10:31:45.649Z,11.90
2022-11-10T10:34:17.094Z,11.90
2022-11-10T10:36:47.008Z,12.00
2022-11-10T10:39:33.681Z,12.10
2022-11-10T10:42:06.360Z,12.20
2022-11-10T10:44:39.542Z,12.30
2022-11-10T10:47:08.185Z,12.40
2022-11-10T10:49:39.444Z,12.50
2022-11-10T10:52:14.848Z,12.70
2022-11-10T10:54:45.105Z,12.70
2022-11-10T10:57:26.014Z,12.70
2022-11-10T11:00:11.246Z,12.90
2022-11-10T11:02:39.994Z,13.00
2022-11-10T11:05:14.745Z,13.10
2022-11-10T11:07:44.400Z,13.10
2022-11-10T11:10:25.975Z,13.20
2022-11-10T11:12:54.738Z,13.10
2022-11-10T11:15:28.584Z,13.10
2022-11-10T11:22:46.517Z,13.10
2022-11-10T11:25:46.067Z,12.90
2022-11-10T11:28:41.218Z,12.80
2022-11-10T11:31:21.011Z,12.70
2022-11-10T11:33:54.143Z,12.90
2022-11-10T11:36:34.930Z,13.10
2022-11-10T11:39:13.552Z,13.20
2022-11-10T11:42:23.076Z,13.40
2022-11-10T11:45:06.793Z,13.20
2022-11-10T11:47:57.000Z,13.50
2022-11-10T11:50:31.965Z,13.40
2022-11-10T11:53:17.863Z,13.30
2022-11-10T11:55:59.394Z,13.30
2022-11-10T11:58:43.203Z,13.40
2022-11-10T12:01:25.740Z,13.40
2022-11-10T12:04:22.611Z,13.40
2022-11-10T12:07:03.469Z,13.40
2022-11-10T12:09:41.553Z,13.50
2022-11-10T12:12:26.557Z,13.70
2022-11-10T12:15:04.371Z,13.50
2022-11-10T12:17:50.743Z,13.60
2022-11-10T12:20:37.407Z,13.50
2022-11-10T12:23:25.613Z,13.40
2022-11-10T12:26:09.610Z,13.40
2022-11-10T12:28:47.945Z,13.30
2022-11-10T12:31:25.639Z,13.30
2022-11-10T12:34:00.337Z,13.30
2022-11-10T12:36:39.150Z,13.40
2022-11-10T12:39:22.021Z,13.20
2022-11-10T12:42:00.741Z,13.20
2022-11-10T12:44:37.533Z,13.20
2022-11-10T12:47:29.233Z,13.20
2022-11-10T12:50:12.258Z,13.20
2022-11-10T12:52:50.703Z,13.00
2022-11-10T12:55:24.583Z,12.90
2022-11-10T12:58:03.686Z,12.90
2022-11-10T13:00:38.229Z,12.80
2022-11-10T13:03:19.676Z,12.70
2022-11-10T13:05:57.467Z,12.70
2022-11-10T13:08:33.712Z,12.60
2022-11-10T13:11:26.171Z,12.60
2022-11-10T13:14:08.488Z,12.60
2022-11-10T13:16:56.909Z,12.50
2022-11-10T13:19:53.823Z,12.60
2022-11-10T13:23:03.212Z,12.40
2022-11-10T13:26:18.426Z,12.10
2022-11-10T13:29:04.980Z,11.80
2022-11-10T13:31:56.059Z,11.60
2022-11-10T13:34:33.471Z,11.60
2022-11-10T13:37:22.795Z,11.70
2022-11-10T13:43:27.536Z,11.70
2022-11-10T13:46:11.858Z,11.80
2022-11-10T13:49:19.500Z,11.80
2022-11-10T13:52:06.844Z,11.80
2022-11-10T13:55:15.917Z,11.80
2022-11-10T13:58:00.364Z,11.80
2022-11-10T14:00:31.804Z,11.80
2022-11-10T14:03:02.849Z,11.60
2022-11-10T14:06:04.889Z,11.40
2022-11-10T14:08:42.053Z,11.30
2022-11-10T14:11:23.696Z,11.10
2022-11-10T14:14:00.908Z,11.00
2022-11-10T14:16:33.925Z,11.00
2022-11-10T14:19:10.582Z,11.00
2022-11-10T14:21:44.317Z,11.10
2022-11-10T14:24:18.443Z,11.10
2022-11-10T14:26:52.573Z,11.10
2022-11-10T14:29:36.051Z,11.20
2022-11-10T14:32:10.456Z,11.30
2022-11-10T14:34:49.529Z,11.40
2022-11-10T14:37:24.558Z,11.40
2022-11-10T14:39:56.525Z,11.40
2022-11-10T14:42:35.595Z,11.30
2022-11-10T14:45:09.796Z,11.20
2022-11-10T14:47:52.797Z,11.00
2022-11-10T14:50:24.753Z,10.80
2022-11-10T14:53:02.274Z,10.60
2022-11-10T14:55:33.253Z,10.40
2022-11-10T14:58:13.085Z,10.10
2022-11-10T15:00:56.454Z,10.20
2022-11-10T15:03:36.345Z,10.00
2022-11-10T15:06:07.203Z,9.90
2022-11-10T15:08:36.541Z,9.80
2022-11-10T15:11:07.776Z,9.80
2022-11-10T15:13:40.239Z,9.70
2022-11-10T15:16:29.485Z,9.60
2022-11-10T15:19:19.462Z,9.50
2022-11-10T15:21:48.854Z,9.40
2022-11-10T15:24:21.035Z,9.40
2022-11-10T15:26:50.362Z,9.30
2022-11-10T15:29:23.565Z,9.20
2022-11-10T15:31:53.853Z,9.20
2022-11-10T15:34:42.949Z,9.10
2022-11-10T15:37:30.872Z,9.10
2022-11-10T15:40:35.696Z,9.10
2022-11-10T15:43:12.326Z,9.20
2022-11-10T15:45:43.871Z,9.20
2022-11-10T15:48:15.002Z,9.20
2022-11-10T15:50:49.477Z,9.20
2022-11-10T15:53:36.642Z,9.20
2022-11-10T15:56:09.639Z,9.40
2022-11-10T15:58:38.683Z,9.50
2022-11-10T16:01:12.841Z,9.50
2022-11-10T16:03:42.022Z,9.50
2022-11-10T16:06:14.920Z,9.50
2022-11-10T16:08:44.028Z,9.50
2022-11-10T16:11:18.792Z,9.40
2022-11-10T16:13:49.339Z,9.30
2022-11-10T16:16:43.193Z,9.20
2022-11-10T16:19:12.242Z,9.10
2022-11-10T16:21:41.019Z,9.10
2022-11-10T16:24:09.931Z,9.20
2022-11-10T16:26:39.173Z,9.20
2022-11-10T16:29:13.989Z,9.30
2022-11-10T16:31:50.310Z,9.30
2022-11-10T16:34:19.102Z,9.40
2022-11-10T16:36:49.587Z,9.40
2022-11-10T16:39:19.176Z,9.40
2022-11-10T16:41:48.088Z,9.40
2022-11-10T16:44:24.818Z,9.40
2022-11-10T16:46:57.646Z,9.40
2022-11-10T16:49:33.932Z,9.40
2022-11-10T16:52:09.456Z,9.40
2022-11-10T16:54:38.230Z,9.40
2022-11-10T16:57:13.647Z,9.40
2022-11-10T16:59:42.743Z,9.20
2022-11-10T17:02:26.976Z,9.20
2022-11-10T17:04:56.308Z,9.10
2022-11-10T17:07:27.405Z,9.00
2022-11-10T17:09:57.431Z,9.00
2022-11-10T17:12:28.634Z,9.00
2022-11-10T17:14:57.341Z,9.00
2022-11-10T17:17:35.477Z,9.10
2022-11-10T17:20:08.854Z,9.20
2022-11-10T17:22:37.846Z,9.30
2022-11-10T17:25:37.589Z,9.10
2022-11-10T17:28:42.810Z,9.10
2022-11-10T17:31:15.681Z,8.90
2022-11-10T17:33:45.907Z,8.80
2022-11-10T17:36:18.766Z,8.80
2022-11-10T17:38:48.764Z,8.70
2022-11-10T17:41:18.750Z,8.60
2022-11-10T17:43:48.259Z,8.60
2022-11-10T17:46:16.938Z,8.40
2022-11-10T17:48:47.994Z,8.40
2022-11-10T17:51:21.359Z,8.40
2022-11-10T17:53:50.894Z,8.30
2022-11-10T17:56:20.787Z,8.30
2022-11-10T17:58:49.670Z,8.30
2022-11-10T18:01:22.221Z,8.30
2022-11-10T18:03:54.277Z,8.20
2022-11-10T18:06:33.088Z,8.20
2022-11-10T18:09:01.998Z,8.20
2022-11-10T18:11:31.039Z,8.10
2022-11-10T18:13:59.765Z,8.00
2022-11-10T18:16:28.432Z,8.00
2022-11-10T18:18:59.713Z,7.90
2022-11-10T18:21:28.336Z,7.90
2022-11-10T18:23:56.931Z,7.80
2022-11-10T18:26:25.792Z,7.80
2022-11-10T18:28:54.602Z,7.80
2022-11-10T18:31:23.373Z,7.70
2022-11-10T18:33:57.403Z,7.70
2022-11-10T18:36:27.476Z,7.70
2022-11-10T18:38:57.728Z,7.70
2022-11-10T18:41:44.232Z,7.70
2022-11-10T18:44:12.923Z,7.70
2022-11-10T18:46:41.661Z,7.60
2022-11-10T18:49:11.188Z,7.60
2022-11-10T18:51:41.350Z,7.60
2022-11-10T18:54:10.238Z,7.60
2022-11-10T18:56:38.920Z,7.50
2022-11-10T18:59:10.678Z,7.50
2022-11-10T19:01:40.185Z,7.50
2022-11-10T19:04:09.463Z,7.40
2022-11-10T19:06:38.281Z,7.40
2022-11-10T19:09:11.685Z,7.40
2022-11-10T19:11:41.052Z,7.30
2022-11-10T19:14:09.691Z,7.30
2022-11-10T19:16:38.701Z,7.30
2022-11-10T19:19:07.434Z,7.30
2022-11-10T19:21:36.104Z,7.20
2022-11-10T19:24:04.964Z,7.20
2022-11-10T19:26:35.177Z,7.20
2022-11-10T19:29:04.100Z,7.20
2022-11-10T19:31:32.962Z,7.10
2022-11-10T19:34:01.837Z,7.10
2022-11-10T19:36:30.818Z,7.10
2022-11-10T19:38:59.446Z,7.10
2022-11-10T19:41:29.710Z,7.00
2022-11-10T19:44:00.988Z,7.00
2022-11-10T19:46:32.562Z,7.00
2022-11-10T19:49:01.999Z,7.00
2022-11-10T19:51:30.707Z,7.00
2022-11-10T19:54:01.839Z,7.00
2022-11-10T19:56:33.725Z,7.10
2022-11-10T19:59:04.021Z,7.10
2022-11-10T20:01:34.803Z,7.00
2022-11-10T20:04:04.451Z,7.00
2022-11-10T20:06:33.084Z,7.00
2022-11-10T20:09:01.861Z,7.00
2022-11-10T20:11:30.865Z,6.90
2022-11-10T20:14:00.978Z,6.90
2022-11-10T20:16:31.065Z,6.80
2022-11-10T20:19:09.080Z,6.80
2022-11-10T20:21:37.841Z,6.80
2022-11-10T20:24:06.831Z,6.80
2022-11-10T20:26:35.799Z,6.70
2022-11-10T20:29:04.603Z,6.70
2022-11-10T20:31:37.198Z,6.70
2022-11-10T20:34:05.964Z,6.60
2022-11-10T20:36:35.291Z,6.60
2022-11-10T20:39:04.038Z,6.60
2022-11-10T20:41:33.676Z,6.60
2022-11-10T20:44:02.565Z,6.50
2022-11-10T20:46:53.596Z,6.50
2022-11-10T20:49:21.554Z,6.60
2022-11-10T20:51:50.352Z,6.60
2022-11-10T20:54:19.071Z,6.60
2022-11-10T20:56:47.847Z,6.50
2022-11-10T20:59:16.623Z,6.50
2022-11-10T21:01:45.467Z,6.50
2022-11-10T21:04:14.779Z,6.40
2022-11-10T21:06:45.152Z,6.50
2022-11-10T21:09:14.071Z,6.40
2022-11-10T21:12:00.254Z,6.40
2022-11-10T21:14:29.023Z,6.40
2022-11-10T21:17:02.652Z,6.30
2022-11-10T21:19:37.761Z,6.30
2022-11-10T21:22:16.654Z,6.30
2022-11-10T21:24:45.592Z,6.30
2022-11-10T21:27:14.378Z,6.30
2022-11-10T21:29:43.300Z,6.20
2022-11-10T21:32:11.991Z,6.20
2022-11-10T21:34:40.649Z,6.20
2022-11-10T21:37:10.760Z,6.10
2022-11-10T21:39:39.713Z,6.10
2022-11-10T21:42:10.527Z,6.10
2022-11-10T21:44:39.253Z,6.10
2022-11-10T21:47:09.939Z,6.10
2022-11-10T21:49:38.800Z,6.00
2022-11-10T21:52:07.632Z,6.00
2022-11-10T21:54:37.786Z,6.00
2022-11-10T21:57:13.459Z,6.00
2022-11-10T21:59:42.352Z,6.00
2022-11-10T22:02:11.979Z,5.90
2022-11-10T22:04:40.733Z,6.00
2022-11-10T22:07:25.687Z,5.90
2022-11-10T22:10:14.514Z,5.90
2022-11-10T22:13:04.543Z,5.90
2022-11-10T22:15:50.679Z,5.90
2022-11-10T22:18:39.024Z,5.80
2022-11-10T22:21:10.362Z,5.80
2022-11-10T22:24:07.057Z,5.80
2022-11-10T22:26:43.145Z,5.80
2022-11-10T22:29:12.364Z,5.80
2022-11-10T22:31:41.370Z,5.80
2022-11-10T22:34:10.150Z,5.80
2022-11-10T22:36:39.201Z,5.80
2022-11-10T22:39:08.493Z,5.80
2022-11-10T22:41:56.265Z,5.80
2022-11-10T22:44:25.398Z,5.80
2022-11-10T22:46:55.199Z,5.90
2022-11-10T22:49:28.244Z,5.90
2022-11-10T22:52:01.404Z,6.00
2022-11-10T22:54:30.352Z,5.90
2022-11-10T22:57:02.133Z,6.00
2022-11-10T22:59:33.026Z,5.90
2022-11-10T23:02:09.497Z,6.00
2022-11-10T23:04:43.001Z,6.00
2022-11-10T23:07:15.323Z,6.00
2022-11-10T23:09:46.155Z,6.00
2022-11-10T23:12:18.618Z,6.00
2022-11-10T23:14:50.504Z,6.00
2022-11-10T23:17:26.435Z,5.90
2022-11-10T23:20:05.776Z,6.00
2022-11-10T23:22:37.634Z,6.00
2022-11-10T23:25:21.345Z,6.00
2022-11-10T23:27:51.967Z,5.90
2022-11-10T23:30:25.570Z,5.90
2022-11-10T23:32:56.691Z,5.90
2022-11-10T23:35:25.501Z,6.00
2022-11-10T23:37:54.510Z,5.90
2022-11-10T23:40:23.525Z,5.90
2022-11-10T23:42:54.530Z,6.00
2022-11-10T23:45:23.278Z,6.00
2022-11-10T23:51:30.235Z,6.00
2022-11-10T23:54:42.585Z,6.10
